createdAt,value
2019-03-17T01:30:08.416Z,9.40
2019-03-17T01:32:36.886Z,12.07
2019-03-17T01:35:09.505Z,10.68
2019-03-17T01:37:35.391Z,16.82
2019-03-17T01:40:03.665Z,12.70
2019-03-17T01:42:33.683Z,12.50
2019-03-17T01:45:02.166Z,12.93
2019-03-17T01:47:30.238Z,14.10
2019-03-17T01:49:59.128Z,13.53
2019-03-17T01:52:27.921Z,14.58
2019-03-17T01:54:56.214Z,16.55
2019-03-17T01:57:24.883Z,16.40
2019-03-17T01:59:52.852Z,18.87
2019-03-17T02:02:21.444Z,17.50
2019-03-17T02:04:50.236Z,17.07
2019-03-17T02:07:19.837Z,18.98
2019-03-17T02:09:48.623Z,16.45
2019-03-17T02:12:16.918Z,17.92
2019-03-17T02:14:45.079Z,19.48
2019-03-17T02:17:14.094Z,17.15
2019-03-17T02:19:42.456Z,21.60
2019-03-17T02:22:10.734Z,21.55
2019-03-17T02:24:40.038Z,20.37
2019-03-17T02:27:08.205Z,19.05
2019-03-17T02:29:36.483Z,20.52
2019-03-17T02:32:04.979Z,19.90
2019-03-17T02:34:33.242Z,23.20
2019-03-17T02:37:03.071Z,22.65
2019-03-17T02:39:31.643Z,23.42
2019-03-17T02:41:59.814Z,24.95
2019-03-17T02:44:28.170Z,29.37
2019-03-17T02:46:56.374Z,29.75
2019-03-17T02:49:24.945Z,30.37
2019-03-17T02:51:53.036Z,24.57
2019-03-17T02:54:21.411Z,26.70
2019-03-17T02:56:49.480Z,28.67
2019-03-17T02:59:18.065Z,26.45
2019-03-17T03:01:46.346Z,29.70
2019-03-17T03:04:14.927Z,26.77
2019-03-17T03:06:43.211Z,34.08
2019-03-17T03:09:11.709Z,29.70
2019-03-17T03:11:39.965Z,27.40
2019-03-17T03:14:08.448Z,28.32
2019-03-17T03:16:37.039Z,29.45
2019-03-17T03:19:05.314Z,27.87
2019-03-17T03:21:33.915Z,28.57
2019-03-17T03:24:02.590Z,28.77
2019-03-17T03:26:30.858Z,27.13
2019-03-17T03:28:58.828Z,27.50
2019-03-17T03:31:28.701Z,28.30
2019-03-17T03:33:56.921Z,34.70
2019-03-17T03:36:25.303Z,31.75
2019-03-17T03:38:53.687Z,33.70
2019-03-17T03:41:23.500Z,32.95
2019-03-17T03:43:51.770Z,33.98
2019-03-17T03:46:21.378Z,33.60
2019-03-17T03:48:51.911Z,33.58
2019-03-17T03:51:20.289Z,41.95
2019-03-17T03:53:49.303Z,36.00
2019-03-17T03:56:20.008Z,37.85
2019-03-17T03:58:48.602Z,41.70
2019-03-17T04:01:16.983Z,40.00
2019-03-17T04:03:48.176Z,34.85
2019-03-17T04:06:26.534Z,35.63
2019-03-17T04:08:47.461Z,38.10
2019-03-17T04:11:15.746Z,39.50
2019-03-17T04:13:44.111Z,35.48
2019-03-17T04:16:12.585Z,39.67
2019-03-17T04:18:41.580Z,37.17
2019-03-17T04:21:10.632Z,35.25
2019-03-17T04:23:38.649Z,34.83
2019-03-17T04:26:06.925Z,35.48
2019-03-17T04:28:35.409Z,35.60
2019-03-17T04:31:03.974Z,35.10
2019-03-17T04:33:31.796Z,40.10
2019-03-17T04:36:00.034Z,31.00
2019-03-17T04:38:28.619Z,37.63
2019-03-17T04:40:57.182Z,33.23
2019-03-17T04:43:26.715Z,28.70
2019-03-17T04:45:55.520Z,31.10
2019-03-17T04:48:23.685Z,31.77
2019-03-17T04:50:52.577Z,27.75
2019-03-17T04:53:20.739Z,32.20
2019-03-17T04:55:48.914Z,29.25
2019-03-17T04:58:17.807Z,28.45
2019-03-17T05:00:46.493Z,26.35
2019-03-17T05:03:14.612Z,30.62
2019-03-17T05:05:42.742Z,26.90
2019-03-17T05:08:11.224Z,27.17
2019-03-17T05:10:42.533Z,27.77
2019-03-17T05:13:10.747Z,28.23
2019-03-17T05:15:39.026Z,28.73
2019-03-17T05:18:07.408Z,26.97
2019-03-17T05:20:35.871Z,27.77
2019-03-17T05:23:05.860Z,25.08
2019-03-17T05:25:35.660Z,29.20
2019-03-17T05:28:03.998Z,29.37
2019-03-17T05:30:34.118Z,29.90
2019-03-17T05:33:02.426Z,34.25
2019-03-17T05:35:30.774Z,32.65
2019-03-17T05:37:59.261Z,36.55
2019-03-17T05:40:27.433Z,34.48
2019-03-17T05:42:55.785Z,32.05
2019-03-17T05:45:23.993Z,32.80
2019-03-17T05:47:53.086Z,32.55
2019-03-17T05:50:21.367Z,36.23
2019-03-17T05:52:49.952Z,36.85
2019-03-17T05:55:18.287Z,33.48
2019-03-17T05:57:50.084Z,36.00
2019-03-17T06:00:18.792Z,38.70
2019-03-17T06:02:47.155Z,40.12
2019-03-17T06:05:15.942Z,39.45
2019-03-17T06:07:44.196Z,39.73
2019-03-17T06:10:12.804Z,37.78
2019-03-17T06:12:41.493Z,36.25
2019-03-17T06:15:09.974Z,43.02
2019-03-17T06:17:39.074Z,42.05
2019-03-17T06:20:07.472Z,44.03
2019-03-17T06:22:35.727Z,46.42
2019-03-17T06:25:04.823Z,50.38
2019-03-17T06:27:33.509Z,42.40
2019-03-17T06:30:01.894Z,46.88
2019-03-17T06:32:30.066Z,55.45
2019-03-17T06:35:00.593Z,44.88
2019-03-17T06:37:31.194Z,44.88
2019-03-17T06:40:09.028Z,46.08
2019-03-17T06:45:31.336Z,47.70
2019-03-17T06:48:08.883Z,47.03
2019-03-17T06:53:34.827Z,44.77
2019-03-17T06:56:03.533Z,49.88
2019-03-17T06:58:32.526Z,46.45
2019-03-17T07:01:01.400Z,50.60
2019-03-17T07:03:29.268Z,52.20
2019-03-17T07:05:58.056Z,46.63
2019-03-17T07:08:26.434Z,47.95
2019-03-17T07:10:55.437Z,47.35
2019-03-17T07:13:24.116Z,50.10
2019-03-17T07:15:55.977Z,52.30
2019-03-17T07:18:24.666Z,49.70
2019-03-17T07:20:55.010Z,54.77
2019-03-17T07:23:23.575Z,52.78
2019-03-17T07:25:54.047Z,60.45
2019-03-17T07:28:22.793Z,56.45
2019-03-17T07:30:51.075Z,51.33
2019-03-17T07:33:19.659Z,53.30
2019-03-17T07:35:48.036Z,55.03
2019-03-17T07:38:16.115Z,50.80
2019-03-17T07:40:44.694Z,54.60
2019-03-17T07:43:13.381Z,52.40
2019-03-17T07:45:41.760Z,56.80
2019-03-17T07:48:10.451Z,52.67
2019-03-17T07:50:39.458Z,50.55
2019-03-17T07:53:07.404Z,50.98
2019-03-17T07:55:36.108Z,48.50
2019-03-17T07:58:04.790Z,52.23
2019-03-17T08:00:33.143Z,51.40
2019-03-17T08:03:01.442Z,51.40
2019-03-17T08:05:29.929Z,47.85
2019-03-17T08:08:08.833Z,55.85
2019-03-17T08:10:31.806Z,49.42
2019-03-17T08:13:00.388Z,44.42
2019-03-17T08:15:29.285Z,45.30
2019-03-17T08:17:57.457Z,48.87
2019-03-17T08:20:25.634Z,48.75
2019-03-17T08:22:53.907Z,47.65
2019-03-17T08:25:22.409Z,44.20
2019-03-17T08:27:50.670Z,42.50
2019-03-17T08:30:18.800Z,44.23
2019-03-17T08:32:47.030Z,45.28
2019-03-17T08:35:15.602Z,45.65
2019-03-17T08:37:45.010Z,44.60
2019-03-17T08:40:13.899Z,43.58
2019-03-17T08:42:42.386Z,44.38
2019-03-17T08:45:11.071Z,49.58
2019-03-17T08:47:40.285Z,41.33
2019-03-17T08:50:11.843Z,41.53
2019-03-17T08:52:40.623Z,43.95
2019-03-17T08:55:10.021Z,48.45
2019-03-17T08:57:38.403Z,48.80
2019-03-17T09:00:06.773Z,46.63
2019-03-17T09:02:36.399Z,45.23
2019-03-17T09:05:04.455Z,44.95
2019-03-17T09:07:32.834Z,45.40
2019-03-17T09:10:04.973Z,44.13
2019-03-17T09:12:32.975Z,58.02
2019-03-17T09:15:01.871Z,52.48
2019-03-17T09:17:31.369Z,47.95
2019-03-17T09:19:59.958Z,49.80
2019-03-17T09:22:31.999Z,51.95
2019-03-17T09:25:10.930Z,46.47
2019-03-17T09:28:08.789Z,46.37
2019-03-17T09:48:07.144Z,47.33
2019-03-17T09:50:35.708Z,52.50
2019-03-17T09:53:05.110Z,50.23
2019-03-17T09:55:34.822Z,49.88
2019-03-17T09:58:03.460Z,56.25
2019-03-17T10:00:32.606Z,50.67
2019-03-17T10:03:00.711Z,51.35
2019-03-17T10:05:29.367Z,52.15
2019-03-17T10:07:57.547Z,56.90
2019-03-17T10:10:26.025Z,60.90
2019-03-17T10:12:55.296Z,63.83
2019-03-17T10:15:23.713Z,55.63
2019-03-17T10:17:51.778Z,60.30
2019-03-17T10:20:20.263Z,60.92
2019-03-17T10:22:49.049Z,60.52
2019-03-17T10:25:18.350Z,64.17
2019-03-17T10:27:46.422Z,61.25
2019-03-17T10:30:15.535Z,69.50
2019-03-17T10:32:44.106Z,61.08
2019-03-17T10:35:12.995Z,66.57
2019-03-17T10:37:41.683Z,66.65
2019-03-17T10:40:10.585Z,64.22
2019-03-17T10:42:44.354Z,67.87
2019-03-17T10:45:12.659Z,67.60
2019-03-17T10:47:40.943Z,68.72
2019-03-17T10:50:09.326Z,71.22
2019-03-17T10:52:37.493Z,74.20
2019-03-17T10:55:06.179Z,74.55
2019-03-17T10:57:35.208Z,75.30
2019-03-17T11:00:04.082Z,73.02
2019-03-17T11:02:32.553Z,74.95
2019-03-17T11:05:01.138Z,73.15
2019-03-17T11:07:29.513Z,69.15
2019-03-17T11:09:57.606Z,78.57
2019-03-17T11:12:28.121Z,84.83
2019-03-17T11:14:56.293Z,80.67
2019-03-17T11:17:24.845Z,82.97
2019-03-17T11:19:53.049Z,80.35
2019-03-17T11:22:21.847Z,88.47
2019-03-17T11:24:50.637Z,90.53
2019-03-17T11:27:19.431Z,94.50
2019-03-17T11:29:48.313Z,86.67
2019-03-17T11:32:16.384Z,94.85
2019-03-17T11:34:44.768Z,91.82
2019-03-17T11:37:13.245Z,103.85
2019-03-17T11:39:41.730Z,93.30
2019-03-17T11:42:10.105Z,98.58
2019-03-17T11:44:39.119Z,97.15
2019-03-17T11:47:07.583Z,97.72
2019-03-17T11:49:35.760Z,104.55
2019-03-17T11:52:04.036Z,101.00
2019-03-17T11:54:32.722Z,106.40
2019-03-17T11:57:01.203Z,112.47
2019-03-17T11:59:29.178Z,121.50
2019-03-17T12:01:57.472Z,119.35
2019-03-17T12:04:26.547Z,113.90
2019-03-17T12:06:56.713Z,122.98
2019-03-17T12:09:29.240Z,114.45
2019-03-17T12:11:54.559Z,116.97
2019-03-17T12:14:23.552Z,115.57
2019-03-17T12:16:52.138Z,107.63
2019-03-17T12:19:21.026Z,112.88
2019-03-17T12:21:49.712Z,99.50
2019-03-17T12:24:18.000Z,107.10
2019-03-17T12:26:46.579Z,104.45
2019-03-17T12:29:15.365Z,103.15
2019-03-17T12:31:43.543Z,97.78
2019-03-17T12:34:12.129Z,98.45
2019-03-17T12:36:40.720Z,100.22
2019-03-17T12:39:09.095Z,97.95
2019-03-17T12:41:38.367Z,94.83
2019-03-17T12:44:07.031Z,88.47
2019-03-17T12:46:35.193Z,85.35
2019-03-17T12:49:03.432Z,84.05
2019-03-17T12:51:31.910Z,74.40
2019-03-17T12:54:00.292Z,85.57
2019-03-17T12:56:28.463Z,72.10
2019-03-17T12:58:57.508Z,70.37
2019-03-17T13:01:25.736Z,75.47
2019-03-17T13:03:53.913Z,75.32
2019-03-17T13:06:22.307Z,65.17
2019-03-17T13:08:50.980Z,74.95
2019-03-17T13:11:19.357Z,65.25
2019-03-17T13:13:49.446Z,65.00
2019-03-17T13:16:19.450Z,65.37
2019-03-17T13:18:49.556Z,65.95
2019-03-17T13:21:17.731Z,71.28
2019-03-17T13:23:46.068Z,65.55
2019-03-17T13:26:14.318Z,63.65
2019-03-17T13:28:44.215Z,56.30
2019-03-17T13:31:12.853Z,62.67
2019-03-17T13:33:41.129Z,50.12
2019-03-17T13:36:09.935Z,56.88
2019-03-17T13:38:41.226Z,58.02
2019-03-17T13:41:09.853Z,57.50
2019-03-17T13:43:40.391Z,59.93
2019-03-17T13:46:08.864Z,58.45
2019-03-17T13:48:37.573Z,58.60
2019-03-17T13:51:05.932Z,54.30
2019-03-17T13:53:34.922Z,53.52
2019-03-17T13:56:03.815Z,62.05
2019-03-17T13:58:32.608Z,55.03
2019-03-17T14:01:00.778Z,64.80
2019-03-17T14:03:29.980Z,59.55
2019-03-17T14:05:58.050Z,67.42
2019-03-17T14:08:26.537Z,64.12
2019-03-17T14:10:55.325Z,65.47
2019-03-17T14:13:23.499Z,68.97
2019-03-17T14:15:54.881Z,66.10
2019-03-17T14:18:23.863Z,63.45
2019-03-17T14:20:52.833Z,59.05
2019-03-17T14:23:21.111Z,64.95
2019-03-17T14:25:51.027Z,68.62
2019-03-17T14:28:19.414Z,57.05
2019-03-17T14:30:47.583Z,69.32
2019-03-17T14:33:16.276Z,58.95
2019-03-17T14:35:44.241Z,67.00
2019-03-17T14:38:12.621Z,66.62
2019-03-17T14:40:52.510Z,60.03
2019-03-17T14:43:10.713Z,58.98
2019-03-17T14:45:39.296Z,58.87
2019-03-17T14:48:07.578Z,64.05
2019-03-17T14:50:35.747Z,60.58
2019-03-17T14:53:04.537Z,68.22
2019-03-17T14:55:32.815Z,66.72
2019-03-17T14:58:01.501Z,67.53
2019-03-17T15:00:30.294Z,66.33
2019-03-17T15:02:59.491Z,67.22
2019-03-17T15:05:27.876Z,68.20
2019-03-17T15:07:56.256Z,66.17
2019-03-17T15:10:25.631Z,70.35
2019-03-17T15:12:53.728Z,75.87
2019-03-17T15:15:22.312Z,72.22
2019-03-17T15:17:51.307Z,75.00
2019-03-17T15:20:19.786Z,74.35
2019-03-17T15:22:48.273Z,68.97
2019-03-17T15:25:16.854Z,75.65
2019-03-17T15:27:45.704Z,74.97
2019-03-17T15:30:14.127Z,77.78
2019-03-17T15:32:42.710Z,68.87
2019-03-17T15:35:10.989Z,69.07
2019-03-17T15:37:39.061Z,67.25
2019-03-17T15:40:09.399Z,70.87
2019-03-17T15:42:37.970Z,68.12
2019-03-17T15:45:06.558Z,72.75
2019-03-17T15:47:37.238Z,67.78
2019-03-17T15:50:05.265Z,66.57
2019-03-17T15:52:34.888Z,69.58
2019-03-17T15:55:03.913Z,65.10
2019-03-17T15:57:33.191Z,69.53
2019-03-17T16:00:01.342Z,63.25
2019-03-17T16:02:31.665Z,63.48
2019-03-17T16:05:01.892Z,62.03
2019-03-17T16:07:41.420Z,64.15
2019-03-17T16:09:59.569Z,63.63
2019-03-17T16:12:30.758Z,62.75
2019-03-17T16:14:58.788Z,64.53
2019-03-17T16:17:28.387Z,62.40
2019-03-17T16:19:59.515Z,57.48
2019-03-17T16:22:27.513Z,57.80
2019-03-17T16:24:55.891Z,59.63
2019-03-17T16:27:24.376Z,54.33
2019-03-17T16:29:52.548Z,60.80
2019-03-17T16:32:21.156Z,59.50
2019-03-17T16:34:50.231Z,50.50
2019-03-17T16:37:18.818Z,51.73
2019-03-17T16:39:47.718Z,48.45
2019-03-17T16:42:15.784Z,50.98
2019-03-17T16:44:44.158Z,52.55
2019-03-17T16:47:13.160Z,47.70
2019-03-17T16:49:41.738Z,46.90
2019-03-17T16:52:10.116Z,51.10
2019-03-17T16:54:38.803Z,47.48
2019-03-17T16:57:07.081Z,46.15
2019-03-17T16:59:35.362Z,48.90
2019-03-17T17:02:03.544Z,50.12
2019-03-17T17:04:32.068Z,48.45
2019-03-17T17:07:00.201Z,47.62
2019-03-17T17:09:29.597Z,50.58
2019-03-17T17:11:57.873Z,46.92
2019-03-17T17:14:26.047Z,45.95
2019-03-17T17:16:54.530Z,52.10
2019-03-17T17:19:22.806Z,48.65
2019-03-17T17:21:51.084Z,49.23
2019-03-17T17:24:19.669Z,49.00
2019-03-17T17:26:48.050Z,50.80
2019-03-17T17:29:16.329Z,48.13
2019-03-17T17:31:45.017Z,45.85
2019-03-17T17:34:13.088Z,50.35
2019-03-17T17:36:41.780Z,47.30
2019-03-17T17:39:10.258Z,47.88
2019-03-17T17:41:38.639Z,52.93
2019-03-17T17:44:07.264Z,51.05
2019-03-17T17:46:36.396Z,47.15
2019-03-17T17:49:04.494Z,47.20
2019-03-17T17:51:32.877Z,50.25
2019-03-17T17:54:01.151Z,47.17
2019-03-17T17:56:29.531Z,46.50
2019-03-17T17:58:58.016Z,50.10
2019-03-17T18:01:26.493Z,51.05
2019-03-17T18:03:54.672Z,50.83
2019-03-17T18:06:23.164Z,49.13
2019-03-17T18:08:51.748Z,46.45
2019-03-17T18:11:20.327Z,46.15
2019-03-17T18:13:48.392Z,55.12
2019-03-17T18:16:16.875Z,53.48
2019-03-17T18:18:45.356Z,53.02
2019-03-17T18:21:13.842Z,45.55
2019-03-17T18:23:42.219Z,46.48
2019-03-17T18:26:10.703Z,51.23
2019-03-17T18:28:39.186Z,47.62
2019-03-17T18:31:07.562Z,49.13
2019-03-17T18:33:35.845Z,49.05
2019-03-17T18:36:04.256Z,46.45
2019-03-17T18:38:32.434Z,50.48
2019-03-17T18:41:01.187Z,47.62
2019-03-17T18:43:29.769Z,50.92
2019-03-17T18:45:58.156Z,52.98
2019-03-17T18:48:26.634Z,54.45
2019-03-17T18:50:55.011Z,56.05
2019-03-17T18:53:23.905Z,54.20
2019-03-17T18:55:51.924Z,58.48
2019-03-17T18:58:20.169Z,50.15
2019-03-17T19:00:48.432Z,56.40
2019-03-17T19:03:16.913Z,49.50
2019-03-17T19:05:45.293Z,51.30
2019-03-17T19:08:13.575Z,57.55
2019-03-17T19:10:41.544Z,53.52
2019-03-17T19:13:10.431Z,55.20
2019-03-17T19:15:38.916Z,53.50
2019-03-17T19:18:07.211Z,56.33
2019-03-17T19:20:35.899Z,50.45
2019-03-17T19:23:04.056Z,50.65
2019-03-17T19:25:32.555Z,51.98
2019-03-17T19:28:00.942Z,57.20
2019-03-17T19:30:29.101Z,51.53
2019-03-17T19:32:58.391Z,51.33
2019-03-17T19:35:27.228Z,53.13
2019-03-17T19:37:55.669Z,53.87
2019-03-17T19:40:24.178Z,56.73
2019-03-17T19:42:59.366Z,54.35
2019-03-17T19:45:22.140Z,53.63
2019-03-17T19:47:51.331Z,52.25
2019-03-17T19:50:20.665Z,54.27
2019-03-17T19:52:48.819Z,52.88
2019-03-17T19:55:17.089Z,52.85
2019-03-17T19:57:45.261Z,50.75
2019-03-17T20:00:13.642Z,57.85
2019-03-17T20:02:41.814Z,52.50
2019-03-17T20:05:10.194Z,52.08
2019-03-17T20:07:38.580Z,51.85
2019-03-17T20:10:06.651Z,47.38
2019-03-17T20:12:35.437Z,51.68
2019-03-17T20:15:03.717Z,47.48
2019-03-17T20:17:32.095Z,47.98
2019-03-17T20:20:00.885Z,49.83
2019-03-17T20:22:29.368Z,46.73
2019-03-17T20:24:57.648Z,44.08
2019-03-17T20:27:26.330Z,47.25
2019-03-17T20:29:54.914Z,46.42
2019-03-17T20:32:22.801Z,47.20
2019-03-17T20:34:51.149Z,44.27
2019-03-17T20:37:19.557Z,43.63
2019-03-17T20:39:47.823Z,39.08
2019-03-17T20:42:17.223Z,45.78
2019-03-17T20:44:45.710Z,43.48
2019-03-17T20:47:14.042Z,40.25
2019-03-17T20:49:42.264Z,42.35
2019-03-17T20:52:10.437Z,42.73
2019-03-17T20:54:38.920Z,42.90
2019-03-17T20:57:07.196Z,39.83
2019-03-17T20:59:35.780Z,43.15
2019-03-17T21:02:04.261Z,42.80
2019-03-17T21:04:32.957Z,42.88
2019-03-17T21:07:01.434Z,38.30
2019-03-17T21:09:29.607Z,39.25
2019-03-17T21:11:58.400Z,39.55
2019-03-17T21:14:26.573Z,38.15
2019-03-17T21:16:55.056Z,38.38
2019-03-17T21:19:23.433Z,39.50
2019-03-17T21:21:51.916Z,34.63
2019-03-17T21:24:20.094Z,38.80
2019-03-17T21:26:49.086Z,35.63
2019-03-17T21:29:17.365Z,35.43
2019-03-17T21:31:45.537Z,33.83
2019-03-17T21:34:14.022Z,37.35
2019-03-17T21:36:42.299Z,33.85
2019-03-17T21:39:10.480Z,39.05
2019-03-17T21:41:38.953Z,33.88
2019-03-17T21:44:08.154Z,36.77
2019-03-17T21:46:36.437Z,31.87
2019-03-17T21:49:05.958Z,32.17
2019-03-17T21:51:34.214Z,34.20
2019-03-17T21:54:02.593Z,32.80
2019-03-17T21:56:30.974Z,33.85
2019-03-17T21:58:59.354Z,39.30
2019-03-17T22:01:27.425Z,32.58
2019-03-17T22:03:56.217Z,31.68
2019-03-17T22:06:24.392Z,33.23
2019-03-17T22:08:52.686Z,34.85
2019-03-17T22:11:20.661Z,27.67
2019-03-17T22:13:49.093Z,28.67
2019-03-17T22:16:17.397Z,29.30
2019-03-17T22:18:45.879Z,29.82
2019-03-17T22:21:14.259Z,27.55
2019-03-17T22:23:42.638Z,29.77
2019-03-17T22:26:10.816Z,29.27
2019-03-17T22:28:39.194Z,27.48
2019-03-17T22:31:07.889Z,27.22
2019-03-17T22:33:37.197Z,29.98
2019-03-17T22:36:06.487Z,27.22
2019-03-17T22:38:34.763Z,29.85
2019-03-17T22:41:03.152Z,25.92
2019-03-17T22:43:31.728Z,27.70
2019-03-17T22:45:59.906Z,27.85
2019-03-17T22:48:28.592Z,26.42
2019-03-17T22:50:57.073Z,25.43
2019-03-17T22:53:25.565Z,25.82
2019-03-17T22:55:53.730Z,27.77
2019-03-17T22:58:22.006Z,28.10
2019-03-17T23:00:50.695Z,27.07
2019-03-17T23:03:20.609Z,24.65
2019-03-17T23:05:49.193Z,28.92
2019-03-17T23:08:17.473Z,27.82
2019-03-17T23:10:45.852Z,25.15
2019-03-17T23:13:14.438Z,26.45
2019-03-17T23:15:42.714Z,25.30
2019-03-17T23:18:12.122Z,26.77
2019-03-17T23:20:40.701Z,25.52
2019-03-17T23:23:08.879Z,23.27
2019-03-17T23:25:37.156Z,24.70
2019-03-17T23:28:05.638Z,23.02
2019-03-17T23:30:34.015Z,25.55
2019-03-17T23:33:02.500Z,24.23
2019-03-17T23:35:31.190Z,22.17
2019-03-17T23:37:59.465Z,23.57
2019-03-17T23:40:27.947Z,20.35
2019-03-17T23:42:56.453Z,22.50
2019-03-17T23:45:25.113Z,21.12
2019-03-17T23:47:53.597Z,22.60
2019-03-17T23:50:21.979Z,20.02
2019-03-17T23:52:50.292Z,20.77
2019-03-17T23:55:18.331Z,23.42
2019-03-17T23:57:47.178Z,21.73
